createdAt,value
2018-12-14T00:01:52.679Z,20.00
2018-12-14T00:04:27.319Z,19.50
2018-12-14T00:07:01.779Z,20.43
2018-12-14T00:09:36.332Z,17.83
2018-12-14T00:12:15.483Z,18.27
2018-12-14T00:14:50.210Z,18.40
2018-12-14T00:17:24.908Z,19.43
2018-12-14T00:19:59.505Z,20.30
2018-12-14T00:22:34.215Z,20.80
2018-12-14T00:25:08.946Z,19.80
2018-12-14T00:27:43.631Z,18.30
2018-12-14T00:30:18.286Z,20.53
2018-12-14T00:32:52.917Z,18.90
2018-12-14T00:35:27.603Z,18.73
2018-12-14T00:38:02.183Z,17.00
2018-12-14T00:40:36.747Z,18.37
2018-12-14T00:43:11.431Z,19.20
2018-12-14T00:45:46.190Z,18.93
2018-12-14T00:48:20.880Z,16.43
2018-12-14T00:50:55.450Z,16.00
2018-12-14T00:53:30.202Z,18.30
2018-12-14T00:56:04.750Z,16.30
2018-12-14T00:58:39.170Z,15.53
2018-12-14T01:01:13.642Z,17.13
2018-12-14T01:03:48.178Z,18.67
2018-12-14T01:06:23.073Z,19.13
2018-12-14T01:08:57.656Z,17.67
2018-12-14T01:11:32.224Z,17.33
2018-12-14T01:14:06.886Z,15.50
2018-12-14T01:16:41.503Z,16.00
2018-12-14T01:19:15.933Z,15.53
2018-12-14T01:21:50.479Z,17.03
2018-12-14T01:24:24.991Z,18.30
2018-12-14T01:26:59.498Z,16.03
2018-12-14T01:29:34.128Z,15.27
2018-12-14T01:32:08.676Z,13.83
2018-12-14T01:34:43.249Z,13.53
2018-12-14T01:37:17.799Z,14.00
2018-12-14T01:39:52.596Z,15.43
2018-12-14T01:42:27.003Z,15.37
2018-12-14T01:45:01.854Z,17.57
2018-12-14T01:47:36.315Z,15.73
2018-12-14T01:50:11.006Z,15.67
2018-12-14T01:52:45.738Z,16.03
2018-12-14T01:55:20.909Z,15.37
2018-12-14T01:57:55.787Z,15.67
2018-12-14T02:00:30.499Z,16.10
2018-12-14T02:03:05.126Z,13.83
2018-12-14T02:05:39.722Z,15.50
2018-12-14T02:08:14.479Z,17.00
2018-12-14T02:10:49.128Z,15.47
2018-12-14T02:13:23.674Z,14.90
2018-12-14T02:15:58.353Z,13.87
2018-12-14T02:18:33.004Z,15.87
2018-12-14T02:21:07.689Z,14.40
2018-12-14T02:23:49.337Z,13.70
2018-12-14T02:26:23.752Z,15.87
2018-12-14T02:28:58.310Z,14.03
2018-12-14T02:31:32.951Z,15.53
2018-12-14T02:34:07.448Z,13.90
2018-12-14T02:36:41.959Z,14.30
2018-12-14T02:39:16.483Z,14.03
2018-12-14T02:41:51.158Z,15.67
2018-12-14T02:44:25.668Z,15.07
2018-12-14T02:47:00.235Z,12.47
2018-12-14T02:49:34.769Z,15.40
2018-12-14T02:52:09.258Z,10.93
2018-12-14T02:54:43.911Z,15.13
2018-12-14T02:57:18.443Z,15.10
2018-12-14T02:59:52.905Z,16.00
2018-12-14T03:02:27.536Z,11.77
2018-12-14T03:05:02.418Z,16.43
2018-12-14T03:07:36.803Z,16.30
2018-12-14T03:10:11.516Z,16.80
2018-12-14T03:12:46.051Z,18.60
2018-12-14T03:15:20.631Z,15.17
2018-12-14T03:17:55.340Z,16.03
2018-12-14T03:20:29.990Z,16.73
2018-12-14T03:23:04.661Z,15.10
2018-12-14T03:25:39.336Z,18.00
2018-12-14T03:28:14.006Z,16.03
2018-12-14T03:30:48.481Z,16.33
2018-12-14T03:33:23.147Z,15.67
2018-12-14T03:35:57.823Z,17.70
2018-12-14T03:38:32.385Z,17.33
2018-12-14T03:41:07.174Z,14.13
2018-12-14T03:43:41.698Z,17.90
2018-12-14T03:46:16.385Z,18.87
2018-12-14T03:48:51.143Z,13.87
2018-12-14T03:51:28.571Z,16.90
2018-12-14T03:54:03.357Z,17.03
2018-12-14T03:56:38.098Z,14.70
2018-12-14T03:59:12.699Z,14.13
2018-12-14T04:01:47.238Z,15.90
2018-12-14T04:04:21.866Z,18.13
2018-12-14T04:06:56.339Z,18.00
2018-12-14T04:09:31.740Z,15.77
2018-12-14T04:12:06.269Z,16.50
2018-12-14T04:14:41.258Z,14.53
2018-12-14T04:17:15.933Z,15.27
2018-12-14T04:19:50.678Z,16.97
2018-12-14T04:22:25.363Z,15.60
2018-12-14T04:24:59.922Z,15.80
2018-12-14T04:27:34.653Z,16.47
2018-12-14T04:30:09.296Z,15.87
2018-12-14T04:32:44.080Z,16.80
2018-12-14T04:35:18.591Z,14.27
2018-12-14T04:37:53.156Z,17.27
2018-12-14T04:40:27.675Z,17.60
2018-12-14T04:43:02.371Z,14.00
2018-12-14T04:45:36.890Z,16.80
2018-12-14T04:48:11.588Z,15.57
2018-12-14T04:50:46.154Z,14.63
2018-12-14T04:53:20.594Z,16.57
2018-12-14T04:55:55.206Z,12.17
2018-12-14T04:58:29.763Z,15.23
2018-12-14T05:01:04.216Z,16.43
2018-12-14T05:03:38.649Z,15.57
2018-12-14T05:06:13.262Z,14.63
2018-12-14T05:08:47.798Z,15.27
2018-12-14T05:11:22.407Z,15.80
2018-12-14T05:13:56.829Z,14.97
2018-12-14T05:16:31.358Z,14.57
2018-12-14T05:19:05.825Z,16.13
2018-12-14T05:21:40.984Z,15.27
2018-12-14T05:24:15.679Z,15.03
2018-12-14T05:26:50.351Z,14.87
2018-12-14T05:29:24.790Z,15.50
2018-12-14T05:31:59.279Z,15.53
2018-12-14T05:34:33.913Z,14.07
2018-12-14T05:37:08.399Z,15.13
2018-12-14T05:39:42.925Z,14.67
2018-12-14T05:42:17.532Z,14.03
2018-12-14T05:44:52.091Z,16.10
2018-12-14T05:47:26.826Z,15.90
2018-12-14T05:50:01.514Z,15.97
2018-12-14T05:52:36.044Z,14.50
2018-12-14T05:55:10.656Z,15.90
2018-12-14T05:57:45.183Z,14.20
2018-12-14T06:00:19.811Z,14.20
2018-12-14T06:02:54.346Z,14.30
2018-12-14T06:05:28.904Z,11.67
2018-12-14T06:08:03.541Z,11.77
2018-12-14T06:10:38.060Z,12.73
2018-12-14T06:13:12.667Z,10.80
2018-12-14T06:15:47.158Z,13.90
2018-12-14T06:18:21.902Z,12.20
2018-12-14T06:20:56.691Z,13.40
2018-12-14T06:23:31.377Z,10.60
2018-12-14T06:26:06.026Z,12.50
2018-12-14T06:28:40.658Z,11.83
2018-12-14T06:31:15.112Z,12.27
2018-12-14T06:33:49.649Z,12.00
2018-12-14T06:36:24.594Z,11.17
2018-12-14T06:38:59.215Z,12.70
2018-12-14T06:41:33.809Z,12.30
2018-12-14T06:44:08.440Z,12.83
2018-12-14T06:46:43.155Z,12.20
2018-12-14T06:49:17.821Z,11.63
2018-12-14T06:51:52.366Z,11.37
2018-12-14T06:54:26.946Z,12.13
2018-12-14T06:57:01.536Z,12.23
2018-12-14T06:59:36.664Z,12.13
2018-12-14T07:02:11.439Z,13.20
2018-12-14T07:04:46.028Z,14.37
2018-12-14T07:07:20.634Z,11.57
2018-12-14T07:09:55.377Z,9.30
2018-12-14T07:12:30.131Z,10.60
2018-12-14T07:15:04.951Z,9.20
2018-12-14T07:17:39.613Z,11.67
2018-12-14T07:20:14.365Z,12.97
2018-12-14T07:22:49.024Z,11.60
2018-12-14T07:25:27.650Z,11.57
2018-12-14T07:28:02.230Z,11.87
2018-12-14T07:30:36.894Z,11.20
2018-12-14T07:33:11.701Z,11.63
2018-12-14T07:35:46.176Z,10.53
2018-12-14T07:38:21.029Z,9.87
2018-12-14T07:40:55.836Z,12.37
2018-12-14T07:43:30.550Z,13.40
2018-12-14T07:46:05.133Z,11.03
2018-12-14T07:48:39.810Z,10.47
2018-12-14T07:51:14.414Z,11.50
2018-12-14T07:53:49.115Z,12.33
2018-12-14T07:56:24.018Z,10.23
2018-12-14T07:58:58.660Z,12.83
2018-12-14T08:01:33.255Z,12.30
2018-12-14T08:04:07.770Z,10.87
2018-12-14T08:06:42.322Z,10.90
2018-12-14T08:09:17.444Z,11.80
2018-12-14T08:11:53.069Z,13.67
2018-12-14T08:14:27.695Z,12.13
2018-12-14T08:17:02.907Z,11.07
2018-12-14T08:19:37.559Z,12.83
2018-12-14T08:22:13.628Z,12.90
2018-12-14T08:24:49.067Z,11.90
2018-12-14T08:27:23.667Z,11.60
2018-12-14T08:29:58.784Z,11.10
2018-12-14T08:32:33.401Z,10.17
2018-12-14T08:35:08.416Z,12.20
2018-12-14T08:37:43.859Z,13.07
2018-12-14T08:40:19.188Z,11.50
2018-12-14T08:42:53.870Z,12.20
2018-12-14T08:45:28.839Z,11.00
2018-12-14T08:48:04.271Z,12.27
2018-12-14T08:50:39.184Z,11.43
2018-12-14T08:53:15.700Z,11.00
2018-12-14T08:55:51.501Z,12.53
2018-12-14T08:58:26.085Z,12.73
2018-12-14T09:01:00.721Z,10.13
2018-12-14T09:03:35.397Z,13.13
2018-12-14T09:06:09.838Z,13.10
2018-12-14T09:08:44.348Z,10.70
2018-12-14T09:11:19.142Z,12.50
2018-12-14T09:13:53.891Z,14.37
2018-12-14T09:16:28.601Z,11.10
2018-12-14T09:19:03.374Z,12.20
2018-12-14T09:21:38.027Z,11.90
2018-12-14T09:24:12.528Z,12.67
2018-12-14T09:26:47.198Z,11.83
2018-12-14T09:29:23.332Z,12.60
2018-12-14T09:31:58.175Z,12.47
2018-12-14T09:34:32.880Z,14.30
2018-12-14T09:37:07.422Z,12.20
2018-12-14T09:39:42.065Z,13.60
2018-12-14T09:42:16.566Z,13.10
2018-12-14T09:44:51.319Z,12.10
2018-12-14T09:47:25.832Z,12.50
2018-12-14T09:50:00.463Z,12.23
2018-12-14T09:52:35.080Z,12.50
2018-12-14T09:55:09.755Z,12.80
2018-12-14T09:57:44.399Z,9.03
2018-12-14T10:00:19.088Z,11.57
2018-12-14T10:02:53.601Z,12.30
2018-12-14T10:05:28.318Z,12.03
2018-12-14T10:08:02.837Z,12.07
2018-12-14T10:10:38.035Z,12.80
2018-12-14T10:13:12.873Z,11.63
2018-12-14T10:15:47.495Z,12.07
2018-12-14T10:18:21.985Z,12.73
2018-12-14T10:20:56.744Z,11.13
2018-12-14T10:23:31.436Z,10.80
2018-12-14T10:26:06.142Z,11.17
2018-12-14T10:28:40.851Z,10.20
2018-12-14T10:31:15.489Z,11.70
2018-12-14T10:33:49.972Z,9.77
2018-12-14T10:36:24.719Z,10.40
2018-12-14T10:38:59.588Z,10.00
2018-12-14T10:41:34.191Z,10.27
2018-12-14T10:44:08.977Z,8.97
2018-12-14T10:46:43.640Z,9.97
2018-12-14T10:49:18.191Z,9.37
2018-12-14T10:51:52.718Z,10.73
2018-12-14T10:54:27.782Z,10.70
2018-12-14T10:57:02.427Z,10.00
2018-12-14T10:59:37.099Z,11.57
2018-12-14T11:02:12.018Z,9.70
2018-12-14T11:04:46.538Z,9.83
2018-12-14T11:07:21.094Z,11.37
2018-12-14T11:09:56.399Z,10.60
2018-12-14T11:12:31.211Z,10.57
2018-12-14T11:15:06.346Z,10.50
2018-12-14T11:17:41.236Z,12.37
2018-12-14T11:20:16.932Z,10.33
2018-12-14T11:22:51.996Z,11.90
2018-12-14T11:25:28.286Z,11.50
2018-12-14T11:28:02.861Z,12.47
2018-12-14T11:30:37.638Z,11.63
2018-12-14T11:33:12.191Z,11.50
2018-12-14T11:35:46.666Z,12.90
2018-12-14T11:38:21.107Z,12.93
2018-12-14T11:40:55.776Z,10.93
2018-12-14T11:43:30.345Z,9.67
2018-12-14T11:46:04.767Z,12.47
2018-12-14T11:48:39.326Z,10.93
2018-12-14T11:51:18.278Z,11.30
2018-12-14T11:53:52.927Z,9.53
2018-12-14T11:56:27.540Z,12.40
2018-12-14T11:59:02.326Z,12.00
2018-12-14T12:01:36.846Z,11.50
2018-12-14T12:04:11.447Z,12.40
2018-12-14T12:06:46.186Z,12.00
2018-12-14T12:09:20.928Z,11.80
2018-12-14T12:11:55.585Z,10.67
2018-12-14T12:14:30.159Z,9.40
2018-12-14T12:17:04.831Z,12.77
2018-12-14T12:19:39.522Z,10.90
2018-12-14T12:22:14.439Z,13.00
2018-12-14T12:24:49.067Z,11.77
2018-12-14T12:27:23.547Z,11.70
2018-12-14T12:29:57.985Z,11.13
2018-12-14T12:32:32.728Z,12.30
2018-12-14T12:35:08.183Z,12.00
2018-12-14T12:37:42.988Z,12.23
2018-12-14T12:40:17.587Z,10.33
2018-12-14T12:42:52.231Z,11.10
2018-12-14T12:45:26.764Z,12.00
2018-12-14T12:48:01.379Z,7.90
2018-12-14T12:50:36.101Z,10.27
2018-12-14T12:53:13.960Z,9.83
2018-12-14T12:55:48.650Z,10.90
2018-12-14T12:58:23.328Z,9.63
2018-12-14T13:00:57.944Z,10.10
2018-12-14T13:03:32.580Z,11.80
2018-12-14T13:06:07.337Z,12.50
2018-12-14T13:08:41.858Z,11.30
2018-12-14T13:11:16.520Z,12.57
2018-12-14T13:13:51.492Z,13.20
2018-12-14T13:16:26.093Z,12.80
2018-12-14T13:19:00.992Z,13.00
2018-12-14T13:21:35.987Z,13.10
2018-12-14T13:24:11.023Z,11.50
2018-12-14T13:26:45.671Z,10.67
2018-12-14T13:29:20.473Z,13.67
2018-12-14T13:31:55.136Z,11.60
2018-12-14T13:34:29.725Z,12.10
2018-12-14T13:37:04.923Z,12.47
2018-12-14T13:39:39.660Z,12.83
2018-12-14T13:42:14.722Z,12.43
2018-12-14T13:44:49.798Z,12.60
2018-12-14T13:47:25.874Z,11.90
2018-12-14T13:50:00.323Z,12.93
2018-12-14T13:52:34.932Z,14.33
2018-12-14T13:55:09.636Z,12.70
2018-12-14T13:57:45.530Z,12.90
2018-12-14T14:00:20.478Z,13.27
2018-12-14T14:02:54.974Z,14.00
2018-12-14T14:05:29.395Z,12.90
2018-12-14T14:08:04.020Z,13.27
2018-12-14T14:10:38.467Z,13.00
2018-12-14T14:13:13.298Z,14.73
2018-12-14T14:15:50.719Z,12.17
2018-12-14T14:18:24.144Z,13.23
2018-12-14T14:20:58.659Z,12.97
2018-12-14T14:23:33.320Z,11.63
2018-12-14T14:26:07.986Z,14.90
2018-12-14T14:28:42.512Z,14.27
2018-12-14T14:31:17.105Z,12.07
2018-12-14T14:33:51.766Z,12.57
2018-12-14T14:36:29.328Z,12.57
2018-12-14T14:39:05.968Z,12.60
2018-12-14T14:41:40.625Z,13.30
2018-12-14T14:44:15.267Z,13.43
2018-12-14T14:46:49.837Z,14.87
2018-12-14T14:49:24.469Z,14.00
2018-12-14T14:51:58.982Z,13.17
2018-12-14T14:54:39.751Z,14.23
2018-12-14T14:57:10.233Z,12.17
2018-12-14T14:59:44.837Z,13.67
2018-12-14T15:02:19.387Z,11.70
2018-12-14T15:04:54.035Z,12.50
2018-12-14T15:07:28.819Z,13.30
2018-12-14T15:10:03.688Z,12.13
2018-12-14T15:12:41.246Z,13.33
2018-12-14T15:15:15.876Z,11.97
2018-12-14T15:17:50.576Z,13.20
2018-12-14T15:20:25.291Z,12.60
2018-12-14T15:22:59.891Z,11.97
2018-12-14T15:25:34.513Z,14.67
2018-12-14T15:28:09.246Z,13.17
2018-12-14T15:30:43.871Z,14.77
2018-12-14T15:33:18.566Z,13.30
2018-12-14T15:35:54.361Z,12.23
2018-12-14T15:38:28.980Z,13.47
2018-12-14T15:41:06.608Z,12.10
2018-12-14T15:43:44.105Z,11.80
2018-12-14T15:46:18.763Z,13.80
2018-12-14T15:48:54.295Z,11.60
2018-12-14T15:51:29.420Z,11.93
2018-12-14T15:54:04.907Z,11.47
2018-12-14T15:56:39.662Z,13.07
2018-12-14T15:59:14.378Z,11.60
2018-12-14T16:01:49.060Z,11.90
2018-12-14T16:04:23.652Z,11.57
2018-12-14T16:06:59.568Z,11.83
2018-12-14T16:09:34.351Z,10.90
2018-12-14T16:12:09.127Z,12.57
2018-12-14T16:14:43.686Z,10.77
2018-12-14T16:17:18.339Z,10.47
2018-12-14T16:19:52.905Z,13.20
2018-12-14T16:22:27.692Z,11.80
2018-12-14T16:25:02.578Z,11.70
2018-12-14T16:27:37.917Z,11.73
2018-12-14T16:30:12.784Z,11.47
2018-12-14T16:32:48.462Z,11.93
2018-12-14T16:35:23.124Z,10.30
2018-12-14T16:37:58.585Z,10.67
2018-12-14T16:40:33.373Z,10.37
2018-12-14T16:43:08.021Z,12.67
2018-12-14T16:45:43.047Z,10.47
2018-12-14T16:48:17.775Z,12.03
2018-12-14T16:50:52.469Z,12.27
2018-12-14T16:53:27.082Z,11.13
2018-12-14T16:56:01.524Z,12.83
2018-12-14T16:58:35.923Z,11.87
2018-12-14T17:01:11.613Z,12.03
2018-12-14T17:03:47.526Z,9.83
2018-12-14T17:06:23.073Z,10.93
2018-12-14T17:08:58.413Z,10.90
2018-12-14T17:11:33.216Z,10.70
2018-12-14T17:14:07.648Z,12.53
2018-12-14T17:16:42.435Z,13.70
2018-12-14T17:19:17.208Z,12.63
2018-12-14T17:21:51.779Z,12.70
2018-12-14T17:24:26.480Z,12.77
2018-12-14T17:27:01.113Z,12.73
2018-12-14T17:29:35.889Z,11.53
2018-12-14T17:32:10.297Z,12.77
2018-12-14T17:34:44.985Z,11.60
2018-12-14T17:37:19.694Z,13.63
2018-12-14T17:39:54.636Z,14.83
2018-12-14T17:42:29.469Z,12.77
2018-12-14T17:45:05.675Z,15.50
2018-12-14T17:47:40.388Z,14.57
2018-12-14T17:50:14.899Z,12.77
2018-12-14T17:52:49.608Z,12.70
2018-12-14T17:55:25.564Z,13.97
2018-12-14T17:58:00.540Z,12.83
2018-12-14T18:00:34.898Z,13.63
2018-12-14T18:03:09.305Z,13.90
2018-12-14T18:05:43.968Z,13.00
2018-12-14T18:08:18.528Z,13.90
2018-12-14T18:10:53.141Z,14.47
2018-12-14T18:13:28.401Z,12.80
2018-12-14T18:16:03.365Z,13.00
2018-12-14T18:18:38.032Z,12.73
2018-12-14T18:21:12.575Z,12.77
2018-12-14T18:23:47.204Z,13.00
2018-12-14T18:26:21.811Z,13.40
2018-12-14T18:28:56.556Z,14.57
2018-12-14T18:31:31.155Z,14.47
2018-12-14T18:34:05.700Z,15.87
2018-12-14T18:36:40.328Z,12.90
2018-12-14T18:39:14.817Z,13.50
2018-12-14T18:41:49.428Z,14.37
2018-12-14T18:44:24.158Z,15.43
2018-12-14T18:46:58.745Z,11.00
2018-12-14T18:49:33.174Z,8.53
2018-12-14T18:52:08.515Z,12.60
2018-12-14T18:54:43.258Z,13.47
2018-12-14T18:57:17.868Z,14.77
2018-12-14T18:59:52.543Z,13.47
2018-12-14T19:02:27.206Z,15.50
2018-12-14T19:05:01.840Z,15.90
2018-12-14T19:07:36.693Z,13.17
2018-12-14T19:10:11.414Z,9.63
2018-12-14T19:12:46.950Z,13.30
2018-12-14T19:15:22.018Z,12.23
2018-12-14T19:17:56.523Z,14.33
2018-12-14T19:20:30.903Z,13.40
2018-12-14T19:23:05.532Z,13.00
2018-12-14T19:25:40.238Z,14.93
2018-12-14T19:28:14.630Z,14.50
2018-12-14T19:30:49.191Z,14.90
2018-12-14T19:33:26.675Z,15.20
2018-12-14T19:36:01.385Z,13.13
2018-12-14T19:38:35.828Z,15.27
2018-12-14T19:41:10.510Z,11.43
2018-12-14T19:43:45.207Z,12.50
2018-12-14T19:46:19.802Z,13.47
2018-12-14T19:48:54.642Z,16.23
2018-12-14T19:51:29.776Z,14.83
2018-12-14T19:54:04.354Z,16.00
2018-12-14T19:56:40.384Z,15.93
2018-12-14T19:59:14.946Z,16.10
2018-12-14T20:01:49.573Z,11.20
2018-12-14T20:04:24.357Z,15.77
2018-12-14T20:06:58.892Z,14.40
2018-12-14T20:09:33.493Z,15.27
2018-12-14T20:12:08.099Z,15.73
2018-12-14T20:14:42.866Z,13.23
2018-12-14T20:17:17.603Z,11.13
2018-12-14T20:19:52.298Z,15.07
2018-12-14T20:22:27.002Z,15.83
2018-12-14T20:25:01.526Z,13.47
2018-12-14T20:27:36.014Z,13.60
2018-12-14T20:32:34.156Z,13.80
2018-12-14T20:35:09.195Z,13.33
2018-12-14T20:37:44.285Z,14.50
2018-12-14T20:40:18.826Z,14.60
2018-12-14T20:42:53.250Z,15.97
2018-12-14T20:45:27.930Z,13.40
2018-12-14T20:48:02.618Z,14.50
2018-12-14T20:50:37.161Z,14.20
2018-12-14T20:53:11.756Z,15.93
2018-12-14T20:55:46.310Z,15.37
2018-12-14T20:58:21.099Z,14.87
2018-12-14T21:00:55.887Z,15.27
2018-12-14T21:03:30.525Z,16.37
2018-12-14T21:06:05.312Z,16.00
2018-12-14T21:08:40.007Z,16.77
2018-12-14T21:11:14.656Z,16.00
2018-12-14T21:13:49.365Z,15.13
2018-12-14T21:16:26.135Z,15.60
2018-12-14T21:19:00.446Z,14.80
2018-12-14T21:21:35.010Z,16.00
2018-12-14T21:24:09.451Z,15.30
2018-12-14T21:26:43.951Z,14.73
2018-12-14T21:29:18.602Z,17.23
2018-12-14T21:31:53.158Z,16.80
2018-12-14T21:34:27.729Z,17.60
2018-12-14T21:37:02.248Z,14.87
2018-12-14T21:39:36.800Z,17.60
2018-12-14T21:42:11.734Z,17.57
2018-12-14T21:44:46.272Z,17.60
2018-12-14T21:47:21.035Z,14.30
2018-12-14T21:49:55.439Z,15.80
2018-12-14T21:52:30.023Z,15.77
2018-12-14T21:55:04.777Z,16.50
2018-12-14T21:57:40.146Z,16.67
2018-12-14T22:00:15.120Z,16.73
2018-12-14T22:02:50.091Z,18.13
2018-12-14T22:05:24.937Z,18.80
2018-12-14T22:07:59.580Z,17.40
2018-12-14T22:10:34.011Z,18.07
2018-12-14T22:13:08.506Z,18.33
2018-12-14T22:15:43.067Z,18.47
2018-12-14T22:18:17.582Z,18.90
2018-12-14T22:20:52.276Z,18.17
2018-12-14T22:23:26.819Z,19.70
2018-12-14T22:26:01.614Z,19.83
2018-12-14T22:28:36.430Z,17.87
2018-12-14T22:31:11.026Z,20.83
2018-12-14T22:33:45.574Z,19.23
2018-12-14T22:36:20.139Z,18.83
2018-12-14T22:38:55.007Z,18.93
2018-12-14T22:41:29.517Z,19.27
2018-12-14T22:44:04.189Z,18.87
2018-12-14T22:46:38.661Z,18.03
2018-12-14T22:49:13.284Z,20.67
2018-12-14T22:51:47.978Z,20.07
2018-12-14T22:54:22.680Z,14.80
2018-12-14T22:56:57.178Z,17.73
2018-12-14T22:59:31.842Z,19.93
2018-12-14T23:02:06.582Z,17.53
2018-12-14T23:04:41.232Z,20.00
2018-12-14T23:07:15.946Z,20.07
2018-12-14T23:09:50.643Z,20.23
2018-12-14T23:12:25.350Z,20.50
2018-12-14T23:14:59.984Z,18.50
2018-12-14T23:17:34.594Z,21.37
2018-12-14T23:20:08.958Z,20.87
2018-12-14T23:22:44.420Z,19.93
2018-12-14T23:25:18.981Z,19.03
2018-12-14T23:27:53.657Z,22.47
2018-12-14T23:30:28.446Z,22.20
2018-12-14T23:33:03.075Z,19.30
2018-12-14T23:35:37.573Z,15.60
2018-12-14T23:38:12.254Z,17.23
2018-12-14T23:40:46.852Z,20.13
2018-12-14T23:43:21.471Z,21.80
2018-12-14T23:45:55.994Z,22.07
2018-12-14T23:48:30.625Z,21.37
2018-12-14T23:51:05.405Z,21.23
2018-12-14T23:53:40.113Z,21.60
2018-12-14T23:56:14.774Z,21.00
2018-12-14T23:58:49.361Z,21.97
